sensor_id;sensor_type;location;lat;lon;timestamp;temperature;humidity
435;DHT22;204;48.942;9.256;2023-11-21T00:02:20;10.20;1.00
435;DHT22;204;48.942;9.256;2023-11-21T00:04:45;10.20;1.00
435;DHT22;204;48.942;9.256;2023-11-21T00:07:11;10.20;1.00
435;DHT22;204;48.942;9.256;2023-11-21T00:09:37;10.10;1.00
435;DHT22;204;48.942;9.256;2023-11-21T00:12:02;10.10;1.00
435;DHT22;204;48.942;9.256;2023-11-21T00:14:28;10.10;1.00
435;DHT22;204;48.942;9.256;2023-11-21T00:16:54;10.10;1.00
435;DHT22;204;48.942;9.256;2023-11-21T00:19:20;10.10;1.00
435;DHT22;204;48.942;9.256;2023-11-21T00:21:45;10.10;1.00
435;DHT22;204;48.942;9.256;2023-11-21T00:24:12;10.10;1.00
435;DHT22;204;48.942;9.256;2023-11-21T00:26:39;10.10;1.00
435;DHT22;204;48.942;9.256;2023-11-21T00:29:05;10.10;1.00
435;DHT22;204;48.942;9.256;2023-11-21T00:31:37;10.10;1.00
435;DHT22;204;48.942;9.256;2023-11-21T00:34:04;10.10;1.00
435;DHT22;204;48.942;9.256;2023-11-21T00:36:31;10.10;1.00
435;DHT22;204;48.942;9.256;2023-11-21T00:38:57;10.10;1.00
435;DHT22;204;48.942;9.256;2023-11-21T00:41:23;10.20;1.00
435;DHT22;204;48.942;9.256;2023-11-21T00:43:48;10.20;1.00
435;DHT22;204;48.942;9.256;2023-11-21T00:46:14;10.20;1.00
435;DHT22;204;48.942;9.256;2023-11-21T00:48:39;10.20;1.00
435;DHT22;204;48.942;9.256;2023-11-21T00:51:05;10.20;1.00
435;DHT22;204;48.942;9.256;2023-11-21T00:53:31;10.20;1.00
435;DHT22;204;48.942;9.256;2023-11-21T00:55:57;10.30;1.00
435;DHT22;204;48.942;9.256;2023-11-21T00:58:26;10.30;1.00
435;DHT22;204;48.942;9.256;2023-11-21T01:00:51;10.30;1.00
435;DHT22;204;48.942;9.256;2023-11-21T01:03:17;10.30;1.00
435;DHT22;204;48.942;9.256;2023-11-21T01:05:42;10.30;1.00
435;DHT22;204;48.942;9.256;2023-11-21T01:08:08;10.30;1.00
435;DHT22;204;48.942;9.256;2023-11-21T01:10:34;10.30;1.00
435;DHT22;204;48.942;9.256;2023-11-21T01:13:00;10.40;1.00
435;DHT22;204;48.942;9.256;2023-11-21T01:15:25;10.40;1.00
435;DHT22;204;48.942;9.256;2023-11-21T01:17:52;10.50;1.00
435;DHT22;204;48.942;9.256;2023-11-21T01:20:18;10.50;1.00
435;DHT22;204;48.942;9.256;2023-11-21T01:22:43;10.40;1.00
435;DHT22;204;48.942;9.256;2023-11-21T01:25:10;10.40;1.00
435;DHT22;204;48.942;9.256;2023-11-21T01:27:36;10.40;1.00
435;DHT22;204;48.942;9.256;2023-11-21T01:30:05;10.50;1.00
435;DHT22;204;48.942;9.256;2023-11-21T01:32:33;10.50;1.00
435;DHT22;204;48.942;9.256;2023-11-21T01:34:59;10.50;1.00
435;DHT22;204;48.942;9.256;2023-11-21T01:37:25;10.50;1.00
435;DHT22;204;48.942;9.256;2023-11-21T01:39:53;10.50;1.00
435;DHT22;204;48.942;9.256;2023-11-21T01:42:20;10.50;1.00
435;DHT22;204;48.942;9.256;2023-11-21T01:44:46;10.50;1.00
435;DHT22;204;48.942;9.256;2023-11-21T01:47:13;10.50;1.00
435;DHT22;204;48.942;9.256;2023-11-21T01:49:38;10.50;1.00
435;DHT22;204;48.942;9.256;2023-11-21T01:52:04;10.50;1.00
435;DHT22;204;48.942;9.256;2023-11-21T01:54:31;10.50;1.00
435;DHT22;204;48.942;9.256;2023-11-21T01:57:00;10.50;1.00
435;DHT22;204;48.942;9.256;2023-11-21T01:59:36;10.60;1.00
435;DHT22;204;48.942;9.256;2023-11-21T02:02:06;10.50;1.00
435;DHT22;204;48.942;9.256;2023-11-21T02:04:35;10.60;1.00
435;DHT22;204;48.942;9.256;2023-11-21T02:07:02;10.60;1.00
435;DHT22;204;48.942;9.256;2023-11-21T02:09:30;10.60;1.00
435;DHT22;204;48.942;9.256;2023-11-21T02:11:56;10.60;1.00
435;DHT22;204;48.942;9.256;2023-11-21T02:14:24;10.60;1.00
435;DHT22;204;48.942;9.256;2023-11-21T02:16:52;10.60;1.00
435;DHT22;204;48.942;9.256;2023-11-21T02:19:19;10.60;1.00
435;DHT22;204;48.942;9.256;2023-11-21T02:21:46;10.60;1.00
435;DHT22;204;48.942;9.256;2023-11-21T02:24:13;10.60;1.00
435;DHT22;204;48.942;9.256;2023-11-21T02:26:39;10.60;1.00
435;DHT22;204;48.942;9.256;2023-11-21T02:29:04;10.60;1.00
435;DHT22;204;48.942;9.256;2023-11-21T02:31:30;10.60;1.00
435;DHT22;204;48.942;9.256;2023-11-21T02:33:58;10.60;1.00
435;DHT22;204;48.942;9.256;2023-11-21T02:36:24;10.60;1.00
435;DHT22;204;48.942;9.256;2023-11-21T02:38:49;10.60;1.00
435;DHT22;204;48.942;9.256;2023-11-21T02:41:15;10.60;1.00
435;DHT22;204;48.942;9.256;2023-11-21T02:43:41;10.60;1.00
435;DHT22;204;48.942;9.256;2023-11-21T02:46:06;10.60;1.00
435;DHT22;204;48.942;9.256;2023-11-21T02:48:33;10.60;1.00
435;DHT22;204;48.942;9.256;2023-11-21T02:50:59;10.60;1.00
435;DHT22;204;48.942;9.256;2023-11-21T02:53:24;10.60;1.00
435;DHT22;204;48.942;9.256;2023-11-21T02:55:51;10.60;1.00
435;DHT22;204;48.942;9.256;2023-11-21T02:58:17;10.60;1.00
435;DHT22;204;48.942;9.256;2023-11-21T03:00:42;10.70;1.00
435;DHT22;204;48.942;9.256;2023-11-21T03:03:08;10.70;1.00
435;DHT22;204;48.942;9.256;2023-11-21T03:05:34;10.70;1.00
435;DHT22;204;48.942;9.256;2023-11-21T03:08:01;10.70;1.00
435;DHT22;204;48.942;9.256;2023-11-21T03:10:26;10.70;1.00
435;DHT22;204;48.942;9.256;2023-11-21T03:12:52;10.70;1.00
435;DHT22;204;48.942;9.256;2023-11-21T03:15:18;10.70;1.00
435;DHT22;204;48.942;9.256;2023-11-21T03:17:43;10.70;1.00
435;DHT22;204;48.942;9.256;2023-11-21T03:20:09;10.60;1.00
435;DHT22;204;48.942;9.256;2023-11-21T03:22:36;10.60;1.00
435;DHT22;204;48.942;9.256;2023-11-21T03:25:03;10.60;1.00
435;DHT22;204;48.942;9.256;2023-11-21T03:27:29;10.60;1.00
435;DHT22;204;48.942;9.256;2023-11-21T03:29:54;10.60;1.00
435;DHT22;204;48.942;9.256;2023-11-21T03:32:20;10.60;1.00
435;DHT22;204;48.942;9.256;2023-11-21T03:34:57;10.70;1.00
435;DHT22;204;48.942;9.256;2023-11-21T03:37:23;10.70;1.00
435;DHT22;204;48.942;9.256;2023-11-21T03:39:48;10.70;1.00
435;DHT22;204;48.942;9.256;2023-11-21T03:42:14;10.70;1.00
435;DHT22;204;48.942;9.256;2023-11-21T03:44:40;10.70;1.00
435;DHT22;204;48.942;9.256;2023-11-21T03:47:05;10.70;1.00
435;DHT22;204;48.942;9.256;2023-11-21T03:49:31;10.70;1.00
435;DHT22;204;48.942;9.256;2023-11-21T03:51:57;10.70;1.00
435;DHT22;204;48.942;9.256;2023-11-21T03:54:22;10.70;1.00
435;DHT22;204;48.942;9.256;2023-11-21T03:56:48;10.70;1.00
435;DHT22;204;48.942;9.256;2023-11-21T03:59:13;10.60;1.00
435;DHT22;204;48.942;9.256;2023-11-21T04:01:39;10.60;1.00
435;DHT22;204;48.942;9.256;2023-11-21T04:04:04;10.60;1.00
435;DHT22;204;48.942;9.256;2023-11-21T04:06:30;10.60;1.00
435;DHT22;204;48.942;9.256;2023-11-21T04:08:58;10.50;1.00
435;DHT22;204;48.942;9.256;2023-11-21T04:11:24;10.50;1.00
435;DHT22;204;48.942;9.256;2023-11-21T04:13:49;10.50;1.00
435;DHT22;204;48.942;9.256;2023-11-21T04:16:15;10.50;1.00
435;DHT22;204;48.942;9.256;2023-11-21T04:18:40;10.50;1.00
435;DHT22;204;48.942;9.256;2023-11-21T04:21:06;10.50;1.00
435;DHT22;204;48.942;9.256;2023-11-21T04:23:33;10.50;1.00
435;DHT22;204;48.942;9.256;2023-11-21T04:25:59;10.60;1.00
435;DHT22;204;48.942;9.256;2023-11-21T04:28:25;10.60;1.00
435;DHT22;204;48.942;9.256;2023-11-21T04:30:50;10.50;1.00
435;DHT22;204;48.942;9.256;2023-11-21T04:33:16;10.50;1.00
435;DHT22;204;48.942;9.256;2023-11-21T04:35:42;10.50;1.00
435;DHT22;204;48.942;9.256;2023-11-21T04:38:08;10.50;1.00
435;DHT22;204;48.942;9.256;2023-11-21T04:40:33;10.50;1.00
435;DHT22;204;48.942;9.256;2023-11-21T04:42:59;10.40;1.00
435;DHT22;204;48.942;9.256;2023-11-21T04:45:24;10.40;1.00
435;DHT22;204;48.942;9.256;2023-11-21T04:47:50;10.40;1.00
435;DHT22;204;48.942;9.256;2023-11-21T04:50:16;10.30;1.00
435;DHT22;204;48.942;9.256;2023-11-21T04:52:41;10.30;1.00
435;DHT22;204;48.942;9.256;2023-11-21T04:55:07;10.20;1.00
435;DHT22;204;48.942;9.256;2023-11-21T04:57:38;10.20;1.00
435;DHT22;204;48.942;9.256;2023-11-21T05:00:08;10.20;1.00
435;DHT22;204;48.942;9.256;2023-11-21T05:02:34;10.20;1.00
435;DHT22;204;48.942;9.256;2023-11-21T05:05:00;10.20;1.00
435;DHT22;204;48.942;9.256;2023-11-21T05:07:26;10.20;1.00
435;DHT22;204;48.942;9.256;2023-11-21T05:09:55;10.20;1.00
435;DHT22;204;48.942;9.256;2023-11-21T05:12:22;10.20;1.00
435;DHT22;204;48.942;9.256;2023-11-21T05:14:51;10.30;1.00
435;DHT22;204;48.942;9.256;2023-11-21T05:17:16;10.30;1.00
435;DHT22;204;48.942;9.256;2023-11-21T05:19:42;10.30;1.00
435;DHT22;204;48.942;9.256;2023-11-21T05:22:08;10.30;1.00
435;DHT22;204;48.942;9.256;2023-11-21T05:24:34;10.30;1.00
435;DHT22;204;48.942;9.256;2023-11-21T05:27:00;10.30;1.00
435;DHT22;204;48.942;9.256;2023-11-21T05:29:25;10.40;1.00
435;DHT22;204;48.942;9.256;2023-11-21T05:31:51;10.40;1.00
435;DHT22;204;48.942;9.256;2023-11-21T05:34:18;10.40;1.00
435;DHT22;204;48.942;9.256;2023-11-21T05:36:44;10.40;1.00
435;DHT22;204;48.942;9.256;2023-11-21T05:39:13;10.40;1.00
435;DHT22;204;48.942;9.256;2023-11-21T05:41:39;10.40;1.00
435;DHT22;204;48.942;9.256;2023-11-21T05:44:05;10.40;1.00
435;DHT22;204;48.942;9.256;2023-11-21T05:46:30;10.40;1.00
435;DHT22;204;48.942;9.256;2023-11-21T05:48:56;10.40;1.00
435;DHT22;204;48.942;9.256;2023-11-21T05:51:22;10.40;1.00
435;DHT22;204;48.942;9.256;2023-11-21T05:53:47;10.40;1.00
435;DHT22;204;48.942;9.256;2023-11-21T05:56:13;10.40;1.00
435;DHT22;204;48.942;9.256;2023-11-21T05:58:39;10.40;1.00
435;DHT22;204;48.942;9.256;2023-11-21T06:01:05;10.40;1.00
435;DHT22;204;48.942;9.256;2023-11-21T06:03:33;10.40;1.00
435;DHT22;204;48.942;9.256;2023-11-21T06:05:58;10.40;1.00
435;DHT22;204;48.942;9.256;2023-11-21T06:08:24;10.40;1.00
435;DHT22;204;48.942;9.256;2023-11-21T06:10:50;10.40;1.00
435;DHT22;204;48.942;9.256;2023-11-21T06:13:15;10.40;1.00
435;DHT22;204;48.942;9.256;2023-11-21T06:15:42;10.50;1.00
435;DHT22;204;48.942;9.256;2023-11-21T06:18:07;10.40;1.00
435;DHT22;204;48.942;9.256;2023-11-21T06:20:35;10.40;1.00
435;DHT22;204;48.942;9.256;2023-11-21T06:23:02;10.40;1.00
435;DHT22;204;48.942;9.256;2023-11-21T06:25:29;10.40;1.00
435;DHT22;204;48.942;9.256;2023-11-21T06:27:55;10.40;1.00
435;DHT22;204;48.942;9.256;2023-11-21T06:30:21;10.40;1.00
435;DHT22;204;48.942;9.256;2023-11-21T06:32:48;10.40;1.00
435;DHT22;204;48.942;9.256;2023-11-21T06:35:15;10.40;1.00
435;DHT22;204;48.942;9.256;2023-11-21T06:37:41;10.40;1.00
435;DHT22;204;48.942;9.256;2023-11-21T06:40:07;10.40;1.00
435;DHT22;204;48.942;9.256;2023-11-21T06:42:32;10.50;1.00
435;DHT22;204;48.942;9.256;2023-11-21T06:45:04;10.50;1.00
435;DHT22;204;48.942;9.256;2023-11-21T06:47:29;10.50;1.00
435;DHT22;204;48.942;9.256;2023-11-21T06:49:56;10.50;1.00
435;DHT22;204;48.942;9.256;2023-11-21T06:52:22;10.50;1.00
435;DHT22;204;48.942;9.256;2023-11-21T06:54:48;10.60;1.00
435;DHT22;204;48.942;9.256;2023-11-21T06:57:17;10.60;1.00
435;DHT22;204;48.942;9.256;2023-11-21T06:59:43;10.60;1.00
435;DHT22;204;48.942;9.256;2023-11-21T07:02:08;10.60;1.00
435;DHT22;204;48.942;9.256;2023-11-21T07:04:38;10.60;1.00
435;DHT22;204;48.942;9.256;2023-11-21T07:07:04;10.60;1.00
435;DHT22;204;48.942;9.256;2023-11-21T07:09:30;10.70;1.00
435;DHT22;204;48.942;9.256;2023-11-21T07:11:56;10.70;1.00
435;DHT22;204;48.942;9.256;2023-11-21T07:14:22;10.70;1.00
435;DHT22;204;48.942;9.256;2023-11-21T07:16:48;10.70;1.00
435;DHT22;204;48.942;9.256;2023-11-21T07:19:14;10.70;1.00
435;DHT22;204;48.942;9.256;2023-11-21T07:21:40;10.70;1.00
435;DHT22;204;48.942;9.256;2023-11-21T07:24:06;10.70;1.00
435;DHT22;204;48.942;9.256;2023-11-21T07:26:33;10.70;1.00
435;DHT22;204;48.942;9.256;2023-11-21T07:29:00;10.70;1.00
435;DHT22;204;48.942;9.256;2023-11-21T07:31:26;10.70;1.00
435;DHT22;204;48.942;9.256;2023-11-21T07:33:52;10.70;1.00
435;DHT22;204;48.942;9.256;2023-11-21T07:36:21;10.70;1.00
435;DHT22;204;48.942;9.256;2023-11-21T07:38:47;10.80;1.00
435;DHT22;204;48.942;9.256;2023-11-21T07:41:13;10.80;1.00
435;DHT22;204;48.942;9.256;2023-11-21T07:43:43;10.90;1.00
435;DHT22;204;48.942;9.256;2023-11-21T07:46:09;10.90;1.00
435;DHT22;204;48.942;9.256;2023-11-21T07:48:35;11.00;1.00
435;DHT22;204;48.942;9.256;2023-11-21T07:51:02;11.00;1.00
435;DHT22;204;48.942;9.256;2023-11-21T07:53:29;11.20;1.00
435;DHT22;204;48.942;9.256;2023-11-21T07:56:00;11.20;1.00
435;DHT22;204;48.942;9.256;2023-11-21T07:58:27;11.30;1.00
435;DHT22;204;48.942;9.256;2023-11-21T08:00:53;11.40;1.00
435;DHT22;204;48.942;9.256;2023-11-21T08:03:19;11.50;1.00
435;DHT22;204;48.942;9.256;2023-11-21T08:05:44;11.60;1.00
435;DHT22;204;48.942;9.256;2023-11-21T08:08:10;11.70;1.00
435;DHT22;204;48.942;9.256;2023-11-21T08:10:36;11.70;1.00
435;DHT22;204;48.942;9.256;2023-11-21T08:13:03;11.70;1.00
435;DHT22;204;48.942;9.256;2023-11-21T08:15:29;11.80;1.00
435;DHT22;204;48.942;9.256;2023-11-21T08:17:57;11.70;1.00
435;DHT22;204;48.942;9.256;2023-11-21T08:20:24;11.80;1.00
435;DHT22;204;48.942;9.256;2023-11-21T08:22:50;11.90;1.00
435;DHT22;204;48.942;9.256;2023-11-21T08:25:17;12.00;1.00
435;DHT22;204;48.942;9.256;2023-11-21T08:27:45;12.10;1.00
435;DHT22;204;48.942;9.256;2023-11-21T08:30:11;12.10;1.00
435;DHT22;204;48.942;9.256;2023-11-21T08:32:37;12.30;1.00
435;DHT22;204;48.942;9.256;2023-11-21T08:35:03;12.40;1.00
435;DHT22;204;48.942;9.256;2023-11-21T08:37:29;12.50;1.00
435;DHT22;204;48.942;9.256;2023-11-21T08:39:58;12.70;1.00
435;DHT22;204;48.942;9.256;2023-11-21T08:42:24;12.90;1.00
435;DHT22;204;48.942;9.256;2023-11-21T08:44:50;13.10;1.00
435;DHT22;204;48.942;9.256;2023-11-21T08:47:16;13.20;1.00
435;DHT22;204;48.942;9.256;2023-11-21T08:49:42;13.30;1.00
435;DHT22;204;48.942;9.256;2023-11-21T08:52:08;13.50;1.00
435;DHT22;204;48.942;9.256;2023-11-21T08:54:34;13.50;1.00
435;DHT22;204;48.942;9.256;2023-11-21T08:56:59;13.60;1.00
435;DHT22;204;48.942;9.256;2023-11-21T08:59:26;13.60;1.00
435;DHT22;204;48.942;9.256;2023-11-21T09:01:51;13.70;1.00
435;DHT22;204;48.942;9.256;2023-11-21T09:04:17;13.70;1.00
435;DHT22;204;48.942;9.256;2023-11-21T09:06:43;13.60;1.00
435;DHT22;204;48.942;9.256;2023-11-21T09:09:08;13.70;1.00
435;DHT22;204;48.942;9.256;2023-11-21T09:11:36;13.70;1.00
435;DHT22;204;48.942;9.256;2023-11-21T09:14:02;13.60;1.00
435;DHT22;204;48.942;9.256;2023-11-21T09:16:31;13.60;1.00
435;DHT22;204;48.942;9.256;2023-11-21T09:18:57;13.60;1.00
435;DHT22;204;48.942;9.256;2023-11-21T09:21:22;13.50;1.00
435;DHT22;204;48.942;9.256;2023-11-21T09:23:49;13.40;1.00
435;DHT22;204;48.942;9.256;2023-11-21T09:26:15;13.50;1.00
435;DHT22;204;48.942;9.256;2023-11-21T09:28:42;13.50;1.00
435;DHT22;204;48.942;9.256;2023-11-21T09:31:12;13.50;1.00
435;DHT22;204;48.942;9.256;2023-11-21T09:33:37;13.50;1.00
435;DHT22;204;48.942;9.256;2023-11-21T09:36:04;13.50;1.00
435;DHT22;204;48.942;9.256;2023-11-21T09:38:30;13.50;1.00
435;DHT22;204;48.942;9.256;2023-11-21T09:40:56;13.40;1.00
435;DHT22;204;48.942;9.256;2023-11-21T09:43:24;13.30;1.00
435;DHT22;204;48.942;9.256;2023-11-21T09:46:06;13.30;1.00
435;DHT22;204;48.942;9.256;2023-11-21T09:48:36;13.20;1.00
435;DHT22;204;48.942;9.256;2023-11-21T09:51:04;13.20;1.00
435;DHT22;204;48.942;9.256;2023-11-21T09:53:31;13.30;1.00
435;DHT22;204;48.942;9.256;2023-11-21T09:55:58;13.20;1.00
435;DHT22;204;48.942;9.256;2023-11-21T09:58:27;13.20;1.00
435;DHT22;204;48.942;9.256;2023-11-21T10:00:57;13.20;1.00
435;DHT22;204;48.942;9.256;2023-11-21T10:03:25;13.10;1.00
435;DHT22;204;48.942;9.256;2023-11-21T10:05:51;13.00;1.00
435;DHT22;204;48.942;9.256;2023-11-21T10:08:19;12.90;1.00
435;DHT22;204;48.942;9.256;2023-11-21T10:10:46;12.80;1.00
435;DHT22;204;48.942;9.256;2023-11-21T10:13:14;12.80;1.00
435;DHT22;204;48.942;9.256;2023-11-21T10:15:42;12.90;1.00
435;DHT22;204;48.942;9.256;2023-11-21T10:18:14;12.90;1.00
435;DHT22;204;48.942;9.256;2023-11-21T10:20:40;12.90;1.00
435;DHT22;204;48.942;9.256;2023-11-21T10:23:07;12.80;1.00
435;DHT22;204;48.942;9.256;2023-11-21T10:25:37;12.80;1.00
435;DHT22;204;48.942;9.256;2023-11-21T10:28:03;12.80;1.00
435;DHT22;204;48.942;9.256;2023-11-21T10:30:37;13.00;1.00
435;DHT22;204;48.942;9.256;2023-11-21T10:33:04;13.30;1.00
435;DHT22;204;48.942;9.256;2023-11-21T10:35:46;13.50;1.00
435;DHT22;204;48.942;9.256;2023-11-21T10:38:23;13.70;1.00
435;DHT22;204;48.942;9.256;2023-11-21T10:40:50;13.80;1.00
435;DHT22;204;48.942;9.256;2023-11-21T10:43:16;13.80;1.00
435;DHT22;204;48.942;9.256;2023-11-21T10:45:43;13.90;1.00
435;DHT22;204;48.942;9.256;2023-11-21T10:48:10;13.90;1.00
435;DHT22;204;48.942;9.256;2023-11-21T10:50:37;13.70;1.00
435;DHT22;204;48.942;9.256;2023-11-21T10:53:04;13.60;1.00
435;DHT22;204;48.942;9.256;2023-11-21T10:55:31;13.60;1.00
435;DHT22;204;48.942;9.256;2023-11-21T10:57:59;13.50;1.00
435;DHT22;204;48.942;9.256;2023-11-21T11:00:28;13.50;1.00
435;DHT22;204;48.942;9.256;2023-11-21T11:02:54;13.40;1.00
435;DHT22;204;48.942;9.256;2023-11-21T11:05:21;13.40;1.00
435;DHT22;204;48.942;9.256;2023-11-21T11:07:50;13.30;1.00
435;DHT22;204;48.942;9.256;2023-11-21T11:10:22;13.20;1.00
435;DHT22;204;48.942;9.256;2023-11-21T11:12:51;13.10;1.00
435;DHT22;204;48.942;9.256;2023-11-21T11:15:19;13.10;1.00
435;DHT22;204;48.942;9.256;2023-11-21T11:17:45;13.20;1.00
435;DHT22;204;48.942;9.256;2023-11-21T11:20:14;13.20;1.00
435;DHT22;204;48.942;9.256;2023-11-21T11:23:08;13.30;1.00
435;DHT22;204;48.942;9.256;2023-11-21T11:28:38;13.40;1.00
435;DHT22;204;48.942;9.256;2023-11-21T11:31:37;13.50;1.00
435;DHT22;204;48.942;9.256;2023-11-21T11:34:28;13.60;1.00
435;DHT22;204;48.942;9.256;2023-11-21T11:37:06;13.60;1.00
435;DHT22;204;48.942;9.256;2023-11-21T11:39:39;13.50;1.00
435;DHT22;204;48.942;9.256;2023-11-21T11:42:08;13.50;1.00
435;DHT22;204;48.942;9.256;2023-11-21T11:50:09;13.40;1.00
435;DHT22;204;48.942;9.256;2023-11-21T11:52:51;13.50;1.00
435;DHT22;204;48.942;9.256;2023-11-21T11:55:19;13.60;1.00
435;DHT22;204;48.942;9.256;2023-11-21T12:02:56;14.00;1.00
435;DHT22;204;48.942;9.256;2023-11-21T12:05:24;14.10;1.00
435;DHT22;204;48.942;9.256;2023-11-21T12:07:54;14.10;1.00
435;DHT22;204;48.942;9.256;2023-11-21T12:10:21;14.30;1.00
435;DHT22;204;48.942;9.256;2023-11-21T12:12:54;14.30;1.00
435;DHT22;204;48.942;9.256;2023-11-21T12:15:21;14.40;1.00
435;DHT22;204;48.942;9.256;2023-11-21T12:17:48;14.30;99.90
435;DHT22;204;48.942;9.256;2023-11-21T12:20:24;14.20;99.90
435;DHT22;204;48.942;9.256;2023-11-21T12:22:52;14.10;99.90
435;DHT22;204;48.942;9.256;2023-11-21T12:25:19;13.90;1.00
435;DHT22;204;48.942;9.256;2023-11-21T12:27:47;13.70;1.00
435;DHT22;204;48.942;9.256;2023-11-21T12:30:15;13.50;1.00
435;DHT22;204;48.942;9.256;2023-11-21T12:32:49;13.30;1.00
435;DHT22;204;48.942;9.256;2023-11-21T12:35:15;13.10;1.00
435;DHT22;204;48.942;9.256;2023-11-21T12:37:45;13.00;1.00
435;DHT22;204;48.942;9.256;2023-11-21T12:40:13;12.80;1.00
435;DHT22;204;48.942;9.256;2023-11-21T12:42:48;12.70;1.00
435;DHT22;204;48.942;9.256;2023-11-21T12:47:42;12.50;1.00
435;DHT22;204;48.942;9.256;2023-11-21T12:50:09;12.50;1.00
435;DHT22;204;48.942;9.256;2023-11-21T12:52:44;12.60;1.00
435;DHT22;204;48.942;9.256;2023-11-21T12:55:22;12.70;1.00
435;DHT22;204;48.942;9.256;2023-11-21T12:57:53;12.80;1.00
435;DHT22;204;48.942;9.256;2023-11-21T13:00:34;12.80;1.00
435;DHT22;204;48.942;9.256;2023-11-21T13:03:04;12.80;1.00
435;DHT22;204;48.942;9.256;2023-11-21T13:05:30;12.80;1.00
435;DHT22;204;48.942;9.256;2023-11-21T13:07:57;12.80;1.00
435;DHT22;204;48.942;9.256;2023-11-21T13:10:27;12.70;1.00
435;DHT22;204;48.942;9.256;2023-11-21T13:12:58;12.60;1.00
435;DHT22;204;48.942;9.256;2023-11-21T13:15:26;12.50;1.00
435;DHT22;204;48.942;9.256;2023-11-21T13:17:53;12.40;1.00
435;DHT22;204;48.942;9.256;2023-11-21T13:20:19;12.20;1.00
435;DHT22;204;48.942;9.256;2023-11-21T13:22:56;12.30;1.00
435;DHT22;204;48.942;9.256;2023-11-21T13:25:27;12.20;1.00
435;DHT22;204;48.942;9.256;2023-11-21T13:27:59;12.20;1.00
435;DHT22;204;48.942;9.256;2023-11-21T13:30:26;12.10;1.00
435;DHT22;204;48.942;9.256;2023-11-21T13:32:56;12.00;1.00
435;DHT22;204;48.942;9.256;2023-11-21T13:35:23;12.00;1.00
435;DHT22;204;48.942;9.256;2023-11-21T13:38:06;11.90;1.00
435;DHT22;204;48.942;9.256;2023-11-21T13:40:33;11.80;1.00
435;DHT22;204;48.942;9.256;2023-11-21T13:43:10;11.70;1.00
435;DHT22;204;48.942;9.256;2023-11-21T13:45:37;11.60;1.00
435;DHT22;204;48.942;9.256;2023-11-21T13:48:05;11.50;1.00
435;DHT22;204;48.942;9.256;2023-11-21T13:50:33;11.50;1.00
435;DHT22;204;48.942;9.256;2023-11-21T13:53:01;11.40;1.00
435;DHT22;204;48.942;9.256;2023-11-21T13:55:34;11.30;1.00
435;DHT22;204;48.942;9.256;2023-11-21T13:58:01;11.30;1.00
435;DHT22;204;48.942;9.256;2023-11-21T14:00:29;11.30;1.00
435;DHT22;204;48.942;9.256;2023-11-21T14:03:07;11.40;1.00
435;DHT22;204;48.942;9.256;2023-11-21T14:05:43;11.50;1.00
435;DHT22;204;48.942;9.256;2023-11-21T14:08:10;11.70;1.00
435;DHT22;204;48.942;9.256;2023-11-21T14:10:37;11.90;1.00
435;DHT22;204;48.942;9.256;2023-11-21T14:13:08;11.90;1.00
435;DHT22;204;48.942;9.256;2023-11-21T14:15:38;11.90;1.00
435;DHT22;204;48.942;9.256;2023-11-21T14:18:07;11.90;1.00
435;DHT22;204;48.942;9.256;2023-11-21T14:20:36;11.90;1.00
435;DHT22;204;48.942;9.256;2023-11-21T14:23:03;11.90;1.00
435;DHT22;204;48.942;9.256;2023-11-21T14:25:31;11.90;1.00
435;DHT22;204;48.942;9.256;2023-11-21T14:27:57;11.90;1.00
435;DHT22;204;48.942;9.256;2023-11-21T14:30:23;11.90;1.00
435;DHT22;204;48.942;9.256;2023-11-21T14:32:49;11.90;1.00
435;DHT22;204;48.942;9.256;2023-11-21T14:35:15;11.80;1.00
435;DHT22;204;48.942;9.256;2023-11-21T14:37:42;11.80;1.00
435;DHT22;204;48.942;9.256;2023-11-21T14:40:09;11.70;1.00
435;DHT22;204;48.942;9.256;2023-11-21T14:42:35;11.70;1.00
435;DHT22;204;48.942;9.256;2023-11-21T14:45:03;11.60;1.00
435;DHT22;204;48.942;9.256;2023-11-21T14:47:32;11.50;1.00
435;DHT22;204;48.942;9.256;2023-11-21T14:50:00;11.40;1.00
435;DHT22;204;48.942;9.256;2023-11-21T14:52:37;11.30;1.00
435;DHT22;204;48.942;9.256;2023-11-21T14:55:18;11.20;1.00
435;DHT22;204;48.942;9.256;2023-11-21T14:57:47;11.10;1.00
435;DHT22;204;48.942;9.256;2023-11-21T15:00:17;11.00;1.00
435;DHT22;204;48.942;9.256;2023-11-21T15:03:03;10.90;1.00
435;DHT22;204;48.942;9.256;2023-11-21T15:05:29;10.80;1.00
435;DHT22;204;48.942;9.256;2023-11-21T15:07:55;10.70;1.00
435;DHT22;204;48.942;9.256;2023-11-21T15:10:24;10.60;1.00
435;DHT22;204;48.942;9.256;2023-11-21T15:13:10;10.60;1.00
435;DHT22;204;48.942;9.256;2023-11-21T15:15:36;10.50;1.00
435;DHT22;204;48.942;9.256;2023-11-21T15:18:03;10.60;1.00
435;DHT22;204;48.942;9.256;2023-11-21T15:20:28;10.60;1.00
435;DHT22;204;48.942;9.256;2023-11-21T15:22:55;10.60;1.00
435;DHT22;204;48.942;9.256;2023-11-21T15:25:21;10.60;1.00
435;DHT22;204;48.942;9.256;2023-11-21T15:27:47;10.60;1.00
435;DHT22;204;48.942;9.256;2023-11-21T15:30:15;10.60;1.00
435;DHT22;204;48.942;9.256;2023-11-21T15:32:44;10.70;1.00
435;DHT22;204;48.942;9.256;2023-11-21T15:35:10;10.70;1.00
435;DHT22;204;48.942;9.256;2023-11-21T15:37:39;10.70;1.00
435;DHT22;204;48.942;9.256;2023-11-21T15:40:05;10.70;1.00
435;DHT22;204;48.942;9.256;2023-11-21T15:42:31;10.70;1.00
435;DHT22;204;48.942;9.256;2023-11-21T15:44:57;10.80;1.00
435;DHT22;204;48.942;9.256;2023-11-21T15:47:22;10.70;1.00
435;DHT22;204;48.942;9.256;2023-11-21T15:49:48;10.70;1.00
435;DHT22;204;48.942;9.256;2023-11-21T15:52:14;10.70;1.00
435;DHT22;204;48.942;9.256;2023-11-21T15:54:40;10.70;1.00
435;DHT22;204;48.942;9.256;2023-11-21T15:57:05;10.60;1.00
435;DHT22;204;48.942;9.256;2023-11-21T15:59:31;10.50;1.00
435;DHT22;204;48.942;9.256;2023-11-21T16:01:59;10.40;1.00
435;DHT22;204;48.942;9.256;2023-11-21T16:04:25;10.20;1.00
435;DHT22;204;48.942;9.256;2023-11-21T16:06:53;10.10;1.00
435;DHT22;204;48.942;9.256;2023-11-21T16:09:19;10.00;1.00
435;DHT22;204;48.942;9.256;2023-11-21T16:11:58;9.90;1.00
435;DHT22;204;48.942;9.256;2023-11-21T16:14:28;9.80;1.00
435;DHT22;204;48.942;9.256;2023-11-21T16:17:01;9.60;1.00
435;DHT22;204;48.942;9.256;2023-11-21T16:19:27;9.60;1.00
435;DHT22;204;48.942;9.256;2023-11-21T16:21:53;9.50;1.00
435;DHT22;204;48.942;9.256;2023-11-21T16:24:19;9.40;1.00
435;DHT22;204;48.942;9.256;2023-11-21T16:26:45;9.40;1.00
435;DHT22;204;48.942;9.256;2023-11-21T16:29:12;9.30;1.00
435;DHT22;204;48.942;9.256;2023-11-21T16:31:38;9.30;1.00
435;DHT22;204;48.942;9.256;2023-11-21T16:34:15;9.30;1.00
435;DHT22;204;48.942;9.256;2023-11-21T16:36:42;9.20;1.00
435;DHT22;204;48.942;9.256;2023-11-21T16:39:11;9.10;1.00
435;DHT22;204;48.942;9.256;2023-11-21T16:41:38;9.00;1.00
435;DHT22;204;48.942;9.256;2023-11-21T16:44:04;9.00;1.00
435;DHT22;204;48.942;9.256;2023-11-21T16:46:30;8.90;1.00
435;DHT22;204;48.942;9.256;2023-11-21T16:48:55;8.80;1.00
435;DHT22;204;48.942;9.256;2023-11-21T16:51:21;8.80;1.00
435;DHT22;204;48.942;9.256;2023-11-21T16:53:47;8.70;1.00
435;DHT22;204;48.942;9.256;2023-11-21T16:56:12;8.60;1.00
435;DHT22;204;48.942;9.256;2023-11-21T16:58:38;8.60;1.00
435;DHT22;204;48.942;9.256;2023-11-21T17:01:04;8.50;1.00
435;DHT22;204;48.942;9.256;2023-11-21T17:03:32;8.60;1.00
435;DHT22;204;48.942;9.256;2023-11-21T17:05:58;8.60;1.00
435;DHT22;204;48.942;9.256;2023-11-21T17:08:24;8.60;1.00
435;DHT22;204;48.942;9.256;2023-11-21T17:10:50;8.60;1.00